Galena, IL

9:39 PM CDT on July 26, 2016 (GMT -0500)
Harbor Oak | | Change Station

Elev 795 ft 42.41 °N, 90.35 °W | Updated 7 minutes ago

Clear
Clear
72.4 °F
Feels Like 72.4 °F
N
0.0
Wind Variable Wind from East
Gusts 0.0 mph

Today
High -- | Low -- °F
--% Chance of Precip.
Yesterday
High -- | Low -- °F
Precip. -- in
Pressure 30.02 in
Visibility 10.0 miles
Clouds Clear
Dew Point 71 °F
Humidity 95%
Rainfall 0.00 in
Snow Depth Not available.
5:48 AM 8:26 PM
Waning Gibbous, 48% visible
METAR KDBQ 270153Z AUTO 00000KT 10SM CLR 24/19 A3004 RMK AO2 SLP166 T02390194
Pressure 30.02 in
Visibility 10.0 miles
Clouds Clear
Dew Point 71 °F
Humidity 95%
Rainfall 0.00 in
Snow Depth Not available.
5:48 AM 8:26 PM
Waning Gibbous, 48% visible
METAR KDBQ 270153Z AUTO 00000KT 10SM CLR 24/19 A3004 RMK AO2 SLP166 T02390194

10-Day Weather Forecast

Almanac

Astronomy

Jul. 26, 2016 Rise Set
Actual Time
Civil Twilight
Nautical Twilight
Astronomical Twilight
Moon
Length of Visible Light
Length of Day
Tomorrow will be .
, % of the Moon is Illuminated

Today's Extremes

State Highs State Lows

Community

WunderPhotos

Upload Photos

1,927,779 photos uploaded!

WunderBlog® & News

Nearby

Air Quality

  Air Quality AQ Index Pollutant
Not available.

Snow Depth

Station Depth Elevation

Earthquake Activity

City Distance Mag. Time & Date
Minimum magnitude displayed is 2.5.

Coastal Water Temperatures

Place Temperature

Stations

Nearby Weather Stations

Station Location Temp. Windchill Dew Point Humidity Wind Precip. Elev Updated Type
                   

Watches & Warnings

There are currently no watches in effect.